createdAt,value
2019-06-10T00:01:01.910Z,3.60
2019-06-10T00:02:00.071Z,3.80
2019-06-10T00:03:00.350Z,4.00
2019-06-10T00:05:00.265Z,4.00
2019-06-10T00:06:01.866Z,3.70
2019-06-10T00:07:02.048Z,4.10
2019-06-10T00:08:02.112Z,3.70
2019-06-10T00:09:03.158Z,4.60
2019-06-10T00:10:02.262Z,3.50
2019-06-10T00:11:03.342Z,4.50
2019-06-10T00:12:02.772Z,3.80
2019-06-10T00:13:02.131Z,4.00
2019-06-10T00:14:02.479Z,3.70
2019-06-10T00:15:01.869Z,4.30
2019-06-10T00:16:02.675Z,3.90
2019-06-10T00:17:01.943Z,3.80
2019-06-10T00:19:02.861Z,3.80
2019-06-10T00:20:03.360Z,4.00
2019-06-10T00:21:02.368Z,3.90
2019-06-10T00:22:02.444Z,4.00
2019-06-10T00:23:02.537Z,3.70
2019-06-10T00:25:02.686Z,3.60
2019-06-10T00:26:03.204Z,3.40
2019-06-10T00:27:02.847Z,4.00
2019-06-10T00:28:02.584Z,4.40
2019-06-10T00:29:02.721Z,4.40
2019-06-10T00:30:02.876Z,3.70
2019-06-10T00:31:02.373Z,4.00
2019-06-10T00:33:03.128Z,4.00
2019-06-10T00:35:02.864Z,3.90
2019-06-10T00:36:03.720Z,3.60
2019-06-10T00:37:02.634Z,4.10
2019-06-10T00:38:03.889Z,4.20
2019-06-10T00:40:03.583Z,3.90
2019-06-10T00:41:03.894Z,4.10
2019-06-10T00:42:03.184Z,3.80
2019-06-10T00:49:03.755Z,3.70
2019-06-10T00:50:05.235Z,4.00
2019-06-10T00:53:51.900Z,4.00
2019-06-10T00:54:52.076Z,3.90
2019-06-10T00:55:51.964Z,4.20
2019-06-10T00:57:53.267Z,3.60
2019-06-10T02:07:56.746Z,4.70
2019-06-10T02:08:56.801Z,4.20
2019-06-10T02:25:01.477Z,3.90
2019-06-10T02:26:02.098Z,4.00
2019-06-10T02:27:01.546Z,3.90
2019-06-10T02:28:01.573Z,4.10
2019-06-10T02:29:01.608Z,3.60
2019-06-10T02:30:13.030Z,3.90
2019-06-10T02:31:03.798Z,3.70
2019-06-10T02:32:04.791Z,4.10
2019-06-10T02:33:02.461Z,3.90
2019-06-10T02:34:02.558Z,3.90
2019-06-10T02:35:08.827Z,4.40
2019-06-10T02:36:04.275Z,3.70
2019-06-10T02:37:04.694Z,3.60
2019-06-10T02:38:03.509Z,3.90
2019-06-10T02:39:04.602Z,3.80
2019-06-10T02:40:04.487Z,3.40
2019-06-10T02:41:04.222Z,4.00
2019-06-10T02:42:04.465Z,4.00
2019-06-10T02:43:03.531Z,3.60
2019-06-10T02:44:04.353Z,4.30
2019-06-10T02:45:03.661Z,3.70
2019-06-10T02:46:04.410Z,3.50
2019-06-10T02:47:03.416Z,3.50
2019-06-10T02:48:04.137Z,3.50
2019-06-10T02:49:20.668Z,3.50
2019-06-10T02:50:07.353Z,4.00
2019-06-10T02:51:03.801Z,4.10
2019-06-10T02:52:03.310Z,3.70
2019-06-10T02:53:04.013Z,3.90
2019-06-10T02:54:04.777Z,3.90
2019-06-10T02:55:04.272Z,3.50
2019-06-10T02:56:04.205Z,3.90
2019-06-10T02:57:04.435Z,4.00
2019-06-10T02:58:03.979Z,4.30
2019-06-10T02:59:03.328Z,4.20
2019-06-10T03:00:06.400Z,3.70
2019-06-10T03:01:04.203Z,4.40
2019-06-10T03:02:03.174Z,4.10
2019-06-10T03:03:03.850Z,4.00
2019-06-10T03:04:04.632Z,4.10
2019-06-10T03:06:07.550Z,4.10
2019-06-10T03:07:03.381Z,4.20
2019-06-10T03:08:03.981Z,4.10
2019-06-10T03:09:03.779Z,3.60
2019-06-10T03:10:04.673Z,3.80
2019-06-10T03:11:03.965Z,3.60
2019-06-10T03:12:04.544Z,4.00
2019-06-10T03:13:03.465Z,3.70
2019-06-10T03:14:03.117Z,3.80
2019-06-10T03:16:03.160Z,3.90
2019-06-10T03:17:03.273Z,4.00
2019-06-10T03:18:03.227Z,4.20
2019-06-10T03:19:03.261Z,3.90
2019-06-10T03:20:03.493Z,3.30
2019-06-10T03:21:03.325Z,3.80
2019-06-10T03:22:03.559Z,3.70
2019-06-10T03:23:03.399Z,3.60
2019-06-10T03:24:03.430Z,3.70
2019-06-10T03:25:03.463Z,3.70
2019-06-10T03:26:04.356Z,4.20
2019-06-10T03:27:03.521Z,3.80
2019-06-10T03:28:03.554Z,4.30
2019-06-10T03:29:03.588Z,4.40
2019-06-10T03:30:14.656Z,3.60
2019-06-10T03:31:05.727Z,3.70
2019-06-10T03:32:05.264Z,4.20
2019-06-10T03:33:05.045Z,4.20
2019-06-10T03:34:05.007Z,4.30
2019-06-10T03:35:05.489Z,4.40
2019-06-10T03:36:03.820Z,4.70
2019-06-10T03:37:03.854Z,3.80
2019-06-10T03:38:03.887Z,4.30
2019-06-10T03:39:03.917Z,4.40
2019-06-10T03:40:03.951Z,4.30
2019-06-10T03:41:03.985Z,5.10
2019-06-10T03:42:04.028Z,4.10
2019-06-10T03:43:04.049Z,4.10
2019-06-10T03:44:04.085Z,3.70
2019-06-10T03:45:04.117Z,3.60
2019-06-10T03:46:04.478Z,3.80
2019-06-10T03:47:04.183Z,3.80
2019-06-10T03:48:04.216Z,3.90
2019-06-10T03:49:04.248Z,3.90
2019-06-10T03:50:04.281Z,4.00
2019-06-10T03:51:04.315Z,4.50
2019-06-10T03:52:04.347Z,3.90
2019-06-10T03:53:04.537Z,4.30
2019-06-10T03:54:04.419Z,4.20
2019-06-10T03:55:04.445Z,4.00
2019-06-10T03:56:04.484Z,3.90
2019-06-10T03:57:04.510Z,4.50
2019-06-10T03:58:04.545Z,4.10
2019-06-10T03:59:04.579Z,3.90
2019-06-10T04:00:10.537Z,3.10
2019-06-10T04:01:04.646Z,4.20
2019-06-10T04:02:04.677Z,3.60
2019-06-10T04:03:04.710Z,3.70
2019-06-10T04:04:04.743Z,4.20
2019-06-10T04:05:04.775Z,4.00
2019-06-10T04:06:04.837Z,4.00
2019-06-10T04:07:05.049Z,3.70
2019-06-10T04:08:04.874Z,4.10
2019-06-10T04:09:04.905Z,4.70
2019-06-10T04:10:04.943Z,4.20
2019-06-10T04:11:04.972Z,4.90
2019-06-10T04:12:05.008Z,4.90
2019-06-10T04:13:05.089Z,4.50
2019-06-10T04:14:05.073Z,4.30
2019-06-10T04:15:05.106Z,4.40
2019-06-10T04:16:05.139Z,4.10
2019-06-10T04:17:05.171Z,4.30
2019-06-10T04:18:05.207Z,4.30
2019-06-10T04:19:05.244Z,4.50
2019-06-10T04:20:12.043Z,3.60
2019-06-10T04:21:05.305Z,4.60
2019-06-10T04:22:05.337Z,4.00
2019-06-10T04:23:05.370Z,4.10
2019-06-10T04:24:05.404Z,4.20
2019-06-10T04:25:05.440Z,3.60
2019-06-10T04:26:05.471Z,4.30
2019-06-10T04:27:05.504Z,3.80
2019-06-10T04:28:05.536Z,3.80
2019-06-10T04:29:05.571Z,4.00
2019-06-10T04:30:05.603Z,3.50
2019-06-10T04:31:05.634Z,4.00
2019-06-10T04:32:05.670Z,4.00
2019-06-10T04:33:05.701Z,4.20
2019-06-10T04:34:05.737Z,3.70
2019-06-10T04:35:05.768Z,4.70
2019-06-10T04:36:05.799Z,4.40
2019-06-10T04:37:05.833Z,4.50
2019-06-10T04:38:05.868Z,4.50
2019-06-10T04:39:05.899Z,4.30
2019-06-10T04:40:05.934Z,4.60
2019-06-10T04:41:05.969Z,4.50
2019-06-10T04:42:05.999Z,4.20
2019-06-10T04:43:06.031Z,3.60
2019-06-10T04:44:06.065Z,4.30
2019-06-10T04:45:06.098Z,4.30
2019-06-10T04:46:06.131Z,3.70
2019-06-10T04:47:06.164Z,3.90
2019-06-10T04:48:06.198Z,3.50
2019-06-10T04:49:06.230Z,4.10
2019-06-10T04:50:18.427Z,4.50
2019-06-10T04:51:06.295Z,3.90
2019-06-10T04:52:06.329Z,4.20
2019-06-10T04:53:06.361Z,4.70
2019-06-10T04:54:06.396Z,4.60
2019-06-10T04:55:06.429Z,5.10
2019-06-10T04:56:06.464Z,5.30
2019-06-10T04:57:06.826Z,4.40
2019-06-10T04:58:06.528Z,4.60
2019-06-10T04:59:06.564Z,5.20
2019-06-10T05:00:11.180Z,5.30
2019-06-10T05:01:06.627Z,5.90
2019-06-10T05:02:06.674Z,6.50
2019-06-10T05:03:06.693Z,7.60
2019-06-10T05:04:06.726Z,6.60
2019-06-10T05:05:06.760Z,6.60
2019-06-10T05:06:06.794Z,6.80
2019-06-10T05:07:06.827Z,7.10
2019-06-10T05:08:06.859Z,6.60
2019-06-10T05:09:06.895Z,6.40
2019-06-10T05:10:06.927Z,6.80
2019-06-10T05:11:06.959Z,6.40
2019-06-10T05:12:06.992Z,7.80
2019-06-10T05:13:07.026Z,8.70
2019-06-10T05:14:07.061Z,9.20
2019-06-10T05:15:07.471Z,10.40
2019-06-10T05:16:07.129Z,10.30
2019-06-10T05:17:07.163Z,10.60
2019-06-10T05:18:07.193Z,11.00
2019-06-10T05:19:07.226Z,12.10
2019-06-10T05:20:07.258Z,11.60
2019-06-10T05:21:07.495Z,11.60
2019-06-10T05:22:07.327Z,11.60
2019-06-10T05:23:07.361Z,11.90
2019-06-10T05:24:07.393Z,13.50
2019-06-10T05:25:07.426Z,13.80
2019-06-10T05:26:07.459Z,13.60
2019-06-10T05:27:07.493Z,12.90
2019-06-10T05:28:07.529Z,13.90
2019-06-10T05:29:07.584Z,13.60
2019-06-10T05:30:07.593Z,14.00
2019-06-10T05:31:07.625Z,14.20
2019-06-10T05:32:07.659Z,13.10
2019-06-10T05:33:07.694Z,14.10
2019-06-10T05:34:07.726Z,14.60
2019-06-10T05:35:07.758Z,13.40
2019-06-10T05:36:07.793Z,14.40
2019-06-10T05:37:07.825Z,13.30
2019-06-10T05:38:07.861Z,12.60
2019-06-10T05:39:07.892Z,12.10
2019-06-10T05:40:07.927Z,12.80
2019-06-10T05:41:07.981Z,13.10
2019-06-10T05:42:07.994Z,12.10
2019-06-10T05:43:08.027Z,12.70
2019-06-10T05:44:08.059Z,13.40
2019-06-10T05:45:08.092Z,13.30
2019-06-10T05:46:08.126Z,13.40
2019-06-10T05:47:08.162Z,12.50
2019-06-10T05:48:08.208Z,9.80
2019-06-10T05:49:08.227Z,10.00
2019-06-10T05:50:08.260Z,9.80
2019-06-10T05:51:08.293Z,8.90
2019-06-10T05:52:08.327Z,9.10
2019-06-10T05:53:08.360Z,10.10
2019-06-10T05:54:08.396Z,9.30
2019-06-10T05:55:08.427Z,9.00
2019-06-10T05:56:08.461Z,8.10
2019-06-10T05:57:08.495Z,7.00
2019-06-10T05:58:08.529Z,6.60
2019-06-10T05:59:08.890Z,7.70
2019-06-10T06:00:13.917Z,7.10
2019-06-10T06:01:08.853Z,6.40
2019-06-10T06:02:08.689Z,5.50
2019-06-10T06:06:08.799Z,5.80
2019-06-10T06:09:08.901Z,5.70
2019-06-10T06:15:02.423Z,6.20
2019-06-10T06:16:03.367Z,6.20
2019-06-10T06:17:02.338Z,6.30
2019-06-10T06:18:09.950Z,6.50
2019-06-10T06:19:03.260Z,6.60
2019-06-10T06:20:02.748Z,6.00
2019-06-10T06:21:19.523Z,6.00
2019-06-10T06:22:02.331Z,6.40
2019-06-10T06:23:02.803Z,6.90
2019-06-10T06:24:03.829Z,6.20
2019-06-10T06:25:03.786Z,6.00
2019-06-10T06:26:03.920Z,5.80
2019-06-10T06:27:02.557Z,5.80
2019-06-10T06:28:02.974Z,5.40
2019-06-10T06:29:02.338Z,5.70
2019-06-10T06:30:07.033Z,5.80
2019-06-10T06:31:03.332Z,5.90
2019-06-10T06:32:02.758Z,5.70
2019-06-10T06:33:02.947Z,5.40
2019-06-10T06:34:03.061Z,5.20
2019-06-10T06:35:02.318Z,6.70
2019-06-10T06:36:03.415Z,6.20
2019-06-10T06:37:02.391Z,6.10
2019-06-10T06:38:02.658Z,5.20
2019-06-10T06:39:02.477Z,5.30
2019-06-10T06:40:02.928Z,5.80
2019-06-10T06:41:03.153Z,5.80
2019-06-10T06:42:02.559Z,5.20
2019-06-10T06:43:02.773Z,5.40
2019-06-10T06:44:02.627Z,5.40
2019-06-10T06:46:50.256Z,5.30
2019-06-10T06:47:52.425Z,5.20
2019-06-10T06:48:53.002Z,5.30
2019-06-10T06:49:50.364Z,5.50
2019-06-10T06:51:01.729Z,6.10
2019-06-10T06:51:56.203Z,6.10
2019-06-10T06:53:18.903Z,5.20
2019-06-10T06:53:53.101Z,5.00
2019-06-10T06:54:52.903Z,5.30
2019-06-10T06:55:53.530Z,4.90
2019-06-10T06:56:53.242Z,5.30
2019-06-10T06:57:52.863Z,5.40
2019-06-10T06:58:52.451Z,5.60
2019-06-10T06:59:52.671Z,4.80
2019-06-10T07:01:01.339Z,5.20
2019-06-10T07:01:52.504Z,5.20
2019-06-10T07:02:52.776Z,5.30
2019-06-10T07:03:53.296Z,5.40
2019-06-10T07:04:52.589Z,5.20
2019-06-10T07:05:52.932Z,6.00
2019-06-10T07:06:55.424Z,6.00
2019-06-10T07:07:52.738Z,4.80
2019-06-10T07:09:01.497Z,5.70
2019-06-10T07:09:52.656Z,5.60
2019-06-10T07:10:52.218Z,4.60
2019-06-10T07:11:52.976Z,5.00
2019-06-10T07:12:52.323Z,4.80
2019-06-10T07:13:53.495Z,4.50
2019-06-10T07:14:52.596Z,4.90
2019-06-10T07:15:53.489Z,5.50
2019-06-10T07:16:52.958Z,5.40
2019-06-10T07:17:52.626Z,5.20
2019-06-10T07:18:53.690Z,4.90
2019-06-10T07:19:52.866Z,5.00
2019-06-10T07:20:53.928Z,5.00
2019-06-10T07:22:08.719Z,4.90
2019-06-10T07:22:53.321Z,5.40
2019-06-10T07:23:52.810Z,4.40
2019-06-10T07:24:52.820Z,4.20
2019-06-10T07:25:53.199Z,4.70
2019-06-10T07:26:54.850Z,5.00
2019-06-10T07:27:52.709Z,4.50
2019-06-10T07:28:53.744Z,5.10
2019-06-10T07:29:52.997Z,5.10
2019-06-10T07:30:55.106Z,4.70
2019-06-10T07:31:53.617Z,4.70
2019-06-10T07:32:52.794Z,4.80
2019-06-10T07:33:52.588Z,4.20
2019-06-10T07:34:52.505Z,4.90
2019-06-10T07:35:52.497Z,5.00
2019-06-10T07:36:52.239Z,4.30
2019-06-10T07:37:52.423Z,4.80
2019-06-10T07:38:53.984Z,4.70
2019-06-10T07:39:52.442Z,4.60
2019-06-10T07:40:53.018Z,4.20
2019-06-10T07:41:53.024Z,3.60
2019-06-10T07:42:53.139Z,3.60
2019-06-10T07:43:53.015Z,4.00
2019-06-10T07:44:53.252Z,3.90
2019-06-10T07:45:53.403Z,4.10
2019-06-10T07:46:52.974Z,4.10
2019-06-10T07:47:52.435Z,4.20
2019-06-10T07:48:56.176Z,3.70
2019-06-10T07:49:52.522Z,3.90
2019-06-10T07:50:53.226Z,3.90
2019-06-10T07:51:52.536Z,3.30
2019-06-10T07:52:52.989Z,2.80
2019-06-10T07:53:52.914Z,3.20
2019-06-10T07:54:53.060Z,3.70
2019-06-10T07:55:53.573Z,3.60
2019-06-10T07:56:53.721Z,3.10
2019-06-10T07:57:53.171Z,3.20
2019-06-10T07:58:53.111Z,3.50
2019-06-10T07:59:52.818Z,3.40
2019-06-10T08:00:53.519Z,3.10
2019-06-10T08:01:55.199Z,3.20
2019-06-10T08:02:53.089Z,3.10
2019-06-10T08:03:53.009Z,2.70
2019-06-10T08:04:54.133Z,3.10
2019-06-10T08:05:53.030Z,3.40
2019-06-10T08:06:53.215Z,3.40
2019-06-10T08:07:54.747Z,3.60
2019-06-10T08:08:53.510Z,3.50
2019-06-10T08:09:53.455Z,2.90
2019-06-10T08:10:53.207Z,2.70
2019-06-10T08:11:53.417Z,3.20
2019-06-10T08:12:53.279Z,2.80
2019-06-10T08:13:54.104Z,2.80
2019-06-10T08:14:53.573Z,3.20
2019-06-10T08:15:53.414Z,2.90
2019-06-10T08:16:53.466Z,2.60
2019-06-10T08:17:53.456Z,2.70
2019-06-10T08:19:20.020Z,3.10
2019-06-10T08:19:54.426Z,3.30
2019-06-10T08:20:53.564Z,3.80
2019-06-10T08:21:53.781Z,4.10
2019-06-10T08:22:57.615Z,4.40
2019-06-10T08:23:54.297Z,4.40
2019-06-10T08:24:53.705Z,4.10
2019-06-10T08:25:57.381Z,4.00
2019-06-10T08:26:53.776Z,3.80
2019-06-10T08:27:53.813Z,3.90
2019-06-10T08:28:53.861Z,4.20
2019-06-10T08:30:13.125Z,3.60
2019-06-10T08:30:53.916Z,4.00
2019-06-10T08:31:53.968Z,3.30
2019-06-10T08:32:56.542Z,3.20
2019-06-10T08:33:54.039Z,3.20
2019-06-10T08:34:54.059Z,3.10
2019-06-10T08:35:59.403Z,3.50
2019-06-10T08:36:54.628Z,3.40
2019-06-10T08:37:54.168Z,2.40
2019-06-10T08:38:54.204Z,2.70
2019-06-10T08:39:54.240Z,3.00
2019-06-10T08:40:54.276Z,2.60
2019-06-10T08:41:54.317Z,2.70
2019-06-10T08:42:54.353Z,2.70
2019-06-10T08:43:54.387Z,2.20
2019-06-10T08:44:54.422Z,2.40
2019-06-10T08:45:54.458Z,2.40
2019-06-10T08:46:54.497Z,2.80
2019-06-10T08:47:57.763Z,2.30
2019-06-10T08:48:54.908Z,2.60
2019-06-10T08:49:55.213Z,2.00
2019-06-10T08:50:54.644Z,3.20
2019-06-10T08:51:54.688Z,2.70
2019-06-10T08:53:10.295Z,2.30
2019-06-10T08:53:54.757Z,2.30
2019-06-10T08:54:54.825Z,2.80
2019-06-10T08:55:58.267Z,2.20
2019-06-10T08:56:54.891Z,2.90
2019-06-10T08:57:54.928Z,2.60
2019-06-10T08:58:54.946Z,2.30
2019-06-10T08:59:54.983Z,2.80
2019-06-10T09:00:55.021Z,2.60
2019-06-10T09:01:56.775Z,2.70
2019-06-10T09:02:55.097Z,3.10
2019-06-10T09:03:55.134Z,2.80
2019-06-10T09:04:55.174Z,2.50
2019-06-10T09:05:58.232Z,2.80
2019-06-10T09:06:55.248Z,2.60
2019-06-10T09:07:55.323Z,2.50
2019-06-10T09:08:55.527Z,2.60
2019-06-10T09:09:55.705Z,2.50
2019-06-10T09:11:55.504Z,2.20
2019-06-10T09:12:55.497Z,2.50
2019-06-10T09:13:55.513Z,2.50
2019-06-10T09:14:55.574Z,2.50
2019-06-10T09:16:10.911Z,2.60
2019-06-10T09:16:55.954Z,2.30
2019-06-10T09:17:56.267Z,2.30
2019-06-10T09:18:55.928Z,2.60
2019-06-10T09:19:56.068Z,2.90
2019-06-10T09:20:56.244Z,2.60
2019-06-10T09:21:56.587Z,2.30
2019-06-10T09:23:15.034Z,2.60
2019-06-10T09:23:59.937Z,3.00
2019-06-10T09:24:56.519Z,2.80
2019-06-10T09:26:56.001Z,2.20
2019-06-10T09:27:56.038Z,3.30
2019-06-10T09:28:56.661Z,3.20
2019-06-10T09:29:56.112Z,2.80
2019-06-10T09:30:59.387Z,2.80
2019-06-10T09:31:56.336Z,2.90
2019-06-10T09:32:58.637Z,3.30
2019-06-10T09:33:57.147Z,2.90
2019-06-10T09:34:57.619Z,2.90
2019-06-10T09:35:56.334Z,2.90
2019-06-10T09:36:57.048Z,3.20
2019-06-10T09:37:56.406Z,2.50
2019-06-10T09:38:56.448Z,3.30
2019-06-10T09:39:59.604Z,3.30
2019-06-10T09:41:01.805Z,3.60
2019-06-10T09:42:02.331Z,3.20
2019-06-10T09:42:56.589Z,2.90
2019-06-10T09:43:57.251Z,3.30
2019-06-10T09:44:56.713Z,3.20
2019-06-10T09:45:56.910Z,3.50
2019-06-10T09:47:00.144Z,2.90
2019-06-10T09:47:59.809Z,3.00
2019-06-10T09:48:56.809Z,3.50
2019-06-10T09:49:56.848Z,3.00
2019-06-10T09:50:58.971Z,3.30
2019-06-10T09:52:57.094Z,3.00
2019-06-10T09:54:02.156Z,2.80
2019-06-10T09:54:56.680Z,3.10
2019-06-10T09:55:55.627Z,2.80
2019-06-10T09:56:54.818Z,2.60
2019-06-10T09:57:59.761Z,2.80
2019-06-10T09:58:55.518Z,3.20
2019-06-10T09:59:56.562Z,2.90
2019-06-10T10:00:57.703Z,2.60
2019-06-10T10:01:59.967Z,2.50
2019-06-10T10:02:56.166Z,2.70
2019-06-10T10:03:59.772Z,2.50
2019-06-10T10:04:58.406Z,2.40
2019-06-10T10:06:09.334Z,2.80
2019-06-10T10:06:57.343Z,2.90
2019-06-10T10:07:57.245Z,2.60
2019-06-10T10:08:58.314Z,2.80
2019-06-10T10:09:57.168Z,2.20
2019-06-10T10:10:58.651Z,3.30
2019-06-10T10:11:56.186Z,2.70
2019-06-10T10:12:55.803Z,2.70
2019-06-10T10:13:55.316Z,2.40
2019-06-10T10:14:56.302Z,2.70
2019-06-10T10:15:55.392Z,2.40
2019-06-10T10:17:00.328Z,2.40
2019-06-10T10:17:56.448Z,2.90
2019-06-10T10:19:00.346Z,3.40
2019-06-10T10:19:57.012Z,2.30
2019-06-10T10:20:59.523Z,3.00
2019-06-10T10:21:58.338Z,3.00
2019-06-10T10:22:55.665Z,2.60
2019-06-10T10:24:06.824Z,3.00
2019-06-10T10:24:57.024Z,2.80
2019-06-10T10:25:57.065Z,2.60
2019-06-10T10:26:58.029Z,3.00
2019-06-10T10:27:57.609Z,3.10
2019-06-10T10:28:57.024Z,2.70
2019-06-10T10:29:57.438Z,3.10
2019-06-10T10:30:58.077Z,2.50
2019-06-10T10:31:56.012Z,2.70
2019-06-10T10:32:56.048Z,3.30
2019-06-10T10:33:56.086Z,2.90
2019-06-10T10:34:56.611Z,2.90
2019-06-10T10:35:56.269Z,3.00
2019-06-10T10:36:57.354Z,3.60
2019-06-10T10:37:56.236Z,3.40
2019-06-10T10:38:56.272Z,3.90
2019-06-10T10:39:56.698Z,3.40
2019-06-10T10:40:58.982Z,3.10
2019-06-10T10:41:57.127Z,2.70
2019-06-10T10:43:10.147Z,2.80
2019-06-10T10:43:58.374Z,3.00
2019-06-10T10:44:59.132Z,3.40
2019-06-10T10:46:00.238Z,3.40
2019-06-10T10:46:56.578Z,3.30
2019-06-10T10:47:57.739Z,3.60
2019-06-10T10:48:56.754Z,3.30
2019-06-10T10:49:57.194Z,4.70
2019-06-10T10:50:56.741Z,4.20
2019-06-10T10:51:56.770Z,7.20
2019-06-10T10:52:56.808Z,3.90
2019-06-10T10:54:18.783Z,4.00
2019-06-10T10:54:56.964Z,4.00
2019-06-10T10:55:56.929Z,3.90
2019-06-10T10:56:59.274Z,3.30
2019-06-10T10:57:57.636Z,3.20
2019-06-10T10:58:58.525Z,3.80
2019-06-10T10:59:57.087Z,3.50
2019-06-10T11:00:57.983Z,3.60
2019-06-10T11:01:57.168Z,3.10
2019-06-10T11:02:57.209Z,3.90
2019-06-10T11:03:59.169Z,3.40
2019-06-10T11:04:57.384Z,3.50
2019-06-10T11:06:00.781Z,3.80
2019-06-10T11:07:00.395Z,3.50
2019-06-10T11:07:57.408Z,3.70
2019-06-10T11:08:57.910Z,3.20
2019-06-10T11:09:57.519Z,3.60
2019-06-10T11:11:00.903Z,3.60
2019-06-10T11:11:57.581Z,3.70
2019-06-10T11:13:02.359Z,3.00
2019-06-10T11:13:59.064Z,3.30
2019-06-10T11:15:01.765Z,3.60
2019-06-10T11:15:58.424Z,3.50
2019-06-10T11:16:58.965Z,3.50
2019-06-10T11:17:58.259Z,3.20
2019-06-10T11:18:58.137Z,3.90
2019-06-10T11:19:58.700Z,3.20
2019-06-10T11:21:01.513Z,3.30
2019-06-10T11:21:58.010Z,3.30
2019-06-10T11:22:58.645Z,3.20
2019-06-10T11:24:01.434Z,3.20
2019-06-10T11:24:58.101Z,3.40
2019-06-10T11:25:59.001Z,3.40
2019-06-10T11:26:58.522Z,3.50
2019-06-10T11:27:58.231Z,3.20
2019-06-10T11:28:58.307Z,3.30
2019-06-10T11:36:26.053Z,3.20
2019-06-10T11:37:26.073Z,3.00
2019-06-10T11:38:26.117Z,3.20
2019-06-10T11:39:26.159Z,3.50
2019-06-10T11:40:26.205Z,3.00
2019-06-10T11:41:26.246Z,3.10
2019-06-10T11:42:26.289Z,3.00
2019-06-10T11:43:26.331Z,2.80
2019-06-10T11:44:26.373Z,2.40
2019-06-10T11:45:26.414Z,2.70
2019-06-10T11:46:26.457Z,3.30
2019-06-10T11:47:26.499Z,2.80
2019-06-10T11:48:26.538Z,2.70
2019-06-10T11:49:26.580Z,2.80
2019-06-10T11:50:26.622Z,3.00
2019-06-10T11:51:26.663Z,3.20
2019-06-10T11:52:26.703Z,3.10
2019-06-10T11:53:28.776Z,2.90
2019-06-10T11:54:26.783Z,3.60
2019-06-10T11:55:26.826Z,2.70
2019-06-10T11:56:26.891Z,3.30
2019-06-10T11:57:27.306Z,3.30
2019-06-10T11:58:26.942Z,3.30
2019-06-10T11:59:26.985Z,3.30
2019-06-10T12:00:27.244Z,3.50
2019-06-10T12:01:27.059Z,3.30
2019-06-10T12:02:27.634Z,3.50
2019-06-10T12:03:27.139Z,3.60
2019-06-10T12:04:27.175Z,4.10
2019-06-10T12:05:27.214Z,3.50
2019-06-10T12:06:27.252Z,3.60
2019-06-10T12:07:27.290Z,4.20
2019-06-10T12:08:27.378Z,3.70
2019-06-10T12:09:27.367Z,4.00
2019-06-10T12:10:27.407Z,3.90
2019-06-10T12:11:27.445Z,4.00
2019-06-10T12:12:27.481Z,3.70
2019-06-10T12:13:27.518Z,3.90
2019-06-10T12:14:27.557Z,4.10
2019-06-10T12:15:27.595Z,4.30
2019-06-10T12:17:41.748Z,3.80
2019-06-10T12:18:27.707Z,3.50
2019-06-10T12:19:27.745Z,4.00
2019-06-10T12:20:28.645Z,4.30
2019-06-10T12:21:27.820Z,4.30
2019-06-10T12:22:27.858Z,4.20
2019-06-10T12:23:27.899Z,3.60
2019-06-10T12:24:27.933Z,4.00
2019-06-10T12:25:35.512Z,3.70
2019-06-10T12:26:28.007Z,3.40
2019-06-10T12:27:28.046Z,3.50
2019-06-10T12:28:28.081Z,4.00
2019-06-10T12:29:28.119Z,4.10
2019-06-10T12:30:28.167Z,4.30
2019-06-10T12:31:28.199Z,3.80
2019-06-10T12:32:28.230Z,4.00
2019-06-10T12:33:28.268Z,4.50
2019-06-10T12:34:28.359Z,4.10
2019-06-10T12:35:28.342Z,4.80
2019-06-10T12:36:28.377Z,4.20
2019-06-10T12:37:28.415Z,4.30
2019-06-10T12:38:28.451Z,4.80
2019-06-10T12:39:28.511Z,4.60
2019-06-10T12:40:28.523Z,4.40
2019-06-10T12:41:28.560Z,4.30
2019-06-10T12:42:28.598Z,4.70
2019-06-10T12:43:28.636Z,4.60
2019-06-10T12:44:28.672Z,4.50
2019-06-10T12:45:28.710Z,5.00
2019-06-10T12:46:28.746Z,4.70
2019-06-10T12:47:28.783Z,4.50
2019-06-10T12:48:28.819Z,5.10
2019-06-10T12:49:28.858Z,4.90
2019-06-10T12:50:28.893Z,5.10
2019-06-10T12:51:28.929Z,5.00
2019-06-10T12:52:28.964Z,4.50
2019-06-10T12:53:29.004Z,4.90
2019-06-10T12:54:29.041Z,5.20
2019-06-10T12:55:40.154Z,4.70
2019-06-10T12:56:29.113Z,5.10
2019-06-10T12:57:29.149Z,4.80
2019-06-10T12:58:29.191Z,5.30
2019-06-10T12:59:29.224Z,5.40
2019-06-10T13:00:29.280Z,5.50
2019-06-10T13:01:29.301Z,6.10
2019-06-10T13:02:34.011Z,6.00
2019-06-10T13:03:29.372Z,5.10
2019-06-10T13:04:29.407Z,6.10
2019-06-10T13:05:29.447Z,6.10
2019-06-10T13:06:29.480Z,6.50
2019-06-10T13:07:29.521Z,5.00
2019-06-10T13:08:29.556Z,6.00
2019-06-10T13:09:29.591Z,7.00
2019-06-10T13:10:29.627Z,7.70
2019-06-10T13:11:29.681Z,7.40
2019-06-10T13:12:32.571Z,8.50
2019-06-10T13:13:29.737Z,9.30
2019-06-10T13:14:29.778Z,7.50
2019-06-10T13:15:29.810Z,7.70
2019-06-10T13:16:31.940Z,7.80
2019-06-10T13:17:29.884Z,6.50
2019-06-10T13:18:29.920Z,6.20
2019-06-10T13:19:34.144Z,5.50
2019-06-10T13:20:32.133Z,5.50
2019-06-10T13:21:30.257Z,5.00
2019-06-10T13:22:32.419Z,5.50
2019-06-10T13:23:34.435Z,5.20
2019-06-10T13:24:30.137Z,5.00
2019-06-10T13:25:31.389Z,5.30
2019-06-10T13:26:32.933Z,5.00
2019-06-10T13:27:31.889Z,5.30
2019-06-10T13:28:32.571Z,5.10
2019-06-10T13:29:30.319Z,5.00
2019-06-10T13:30:30.356Z,5.00
2019-06-10T13:31:32.961Z,5.10
2019-06-10T13:32:32.497Z,5.00
2019-06-10T13:33:32.846Z,4.70
2019-06-10T13:34:32.424Z,4.50
2019-06-10T13:35:32.182Z,4.70
2019-06-10T13:36:32.938Z,4.90
2019-06-10T13:37:32.151Z,5.60
2019-06-10T13:38:32.983Z,4.50
2019-06-10T13:39:32.513Z,4.60
2019-06-10T13:40:32.000Z,5.10
2019-06-10T13:41:33.292Z,4.70
2019-06-10T13:42:35.684Z,4.30
2019-06-10T13:43:33.822Z,4.60
2019-06-10T13:44:32.175Z,4.30
2019-06-10T13:45:33.056Z,4.60
2019-06-10T13:46:32.976Z,4.60
2019-06-10T13:47:33.227Z,5.40
2019-06-10T13:48:32.081Z,5.20
2019-06-10T13:49:33.104Z,4.90
2019-06-10T13:50:32.878Z,5.10
2019-06-10T13:51:32.302Z,5.40
2019-06-10T13:52:32.145Z,5.60
2019-06-10T13:53:31.195Z,5.10
2019-06-10T13:54:31.239Z,4.60
2019-06-10T13:55:32.841Z,5.40
2019-06-10T13:56:46.361Z,5.50
2019-06-10T13:57:32.239Z,5.40
2019-06-10T13:58:31.381Z,5.20
2019-06-10T13:59:31.412Z,5.60
2019-06-10T14:00:40.867Z,5.70
2019-06-10T14:01:34.906Z,5.10
2019-06-10T14:02:32.355Z,5.40
2019-06-10T14:03:32.597Z,5.30
2019-06-10T14:04:33.478Z,5.80
2019-06-10T14:05:34.411Z,5.20
2019-06-10T14:06:40.596Z,5.00
2019-06-10T14:07:32.484Z,4.80
2019-06-10T14:08:32.497Z,5.00
2019-06-10T14:09:33.040Z,4.90
2019-06-10T14:10:32.511Z,4.70
2019-06-10T14:11:33.930Z,5.30
2019-06-10T14:12:32.438Z,5.10
2019-06-10T14:13:32.562Z,5.20
2019-06-10T14:14:33.285Z,4.60
2019-06-10T14:15:32.979Z,4.90
2019-06-10T14:16:33.162Z,5.20
2019-06-10T14:17:32.884Z,5.70
2019-06-10T14:18:33.447Z,5.30
2019-06-10T14:19:32.499Z,4.70
2019-06-10T14:20:32.605Z,5.10
2019-06-10T14:21:33.090Z,5.00
2019-06-10T14:22:32.898Z,4.70
2019-06-10T14:23:33.128Z,5.00
2019-06-10T14:24:33.073Z,5.10
2019-06-10T14:25:33.087Z,5.10
2019-06-10T14:26:40.838Z,5.50
2019-06-10T14:27:32.426Z,5.10
2019-06-10T14:28:40.667Z,5.10
2019-06-10T14:29:32.501Z,5.40
2019-06-10T14:30:32.534Z,5.20
2019-06-10T14:31:42.941Z,4.80
2019-06-10T14:32:32.953Z,5.10
2019-06-10T14:33:33.139Z,4.90
2019-06-10T14:34:32.724Z,4.60
2019-06-10T14:35:33.162Z,5.20
2019-06-10T14:36:32.751Z,5.00
2019-06-10T14:37:38.911Z,4.80
2019-06-10T14:38:32.915Z,4.90
2019-06-10T14:39:33.057Z,4.70
2019-06-10T14:40:32.893Z,4.80
2019-06-10T14:41:32.930Z,5.20
2019-06-10T14:42:32.966Z,5.10
2019-06-10T14:45:33.096Z,5.10
2019-06-10T14:46:33.116Z,5.30
2019-06-10T14:47:33.145Z,5.10
2019-06-10T14:48:33.797Z,4.60
2019-06-10T14:49:33.218Z,5.10
2019-06-10T14:53:33.488Z,5.60
2019-06-10T14:54:32.216Z,5.70
2019-06-10T14:55:33.874Z,4.70
2019-06-10T14:56:33.322Z,6.00
2019-06-10T14:57:33.388Z,5.40
2019-06-10T14:58:31.091Z,6.10
2019-06-10T14:59:31.127Z,5.50
2019-06-10T15:01:32.177Z,5.80
2019-06-10T15:02:33.456Z,5.80
2019-06-10T15:03:32.715Z,5.70
2019-06-10T15:04:33.179Z,5.70
2019-06-10T15:05:32.388Z,5.30
2019-06-10T15:06:33.829Z,5.40
2019-06-10T15:07:33.064Z,5.50
2019-06-10T15:08:32.253Z,5.60
2019-06-10T15:09:33.473Z,6.40
2019-06-10T15:10:32.244Z,6.10
2019-06-10T15:11:32.183Z,5.60
2019-06-10T15:12:32.723Z,6.50
2019-06-10T15:13:32.766Z,6.20
2019-06-10T15:14:32.371Z,5.90
2019-06-10T15:15:33.018Z,6.20
2019-06-10T15:16:33.657Z,7.00
2019-06-10T15:17:32.533Z,7.00
2019-06-10T15:18:33.071Z,7.60
2019-06-10T15:20:32.955Z,7.20
2019-06-10T15:21:32.372Z,7.50
2019-06-10T15:24:33.507Z,8.40
2019-06-10T15:25:48.617Z,8.20
2019-06-10T15:26:32.657Z,7.90
2019-06-10T15:27:33.943Z,8.60
2019-06-10T15:28:32.156Z,8.80
2019-06-10T15:29:32.812Z,9.70
2019-06-10T15:30:34.380Z,8.00
2019-06-10T15:31:32.258Z,9.30